Time;durP1;ratioP1;P1;durP2;ratioP2;P2;SDS_P1;SDS_P2;PMS_P1;PMS_P2;Temp;Humidity;BMP_temperature;BMP_pressure;BME280_temperature;BME280_humidity;BME280_pressure;Samples;Min_cycle;Max_cycle;Signal;HPM_P1;HPM_P2
2023/03/22 00:01:22;;;;;;;;;;;;;;;5.94;77.44;97108.39;108778;1251;95751;-74
2023/03/22 00:03:51;;;;;;;;;;;;;;;5.94;77.38;97107.52;108897;1251;95765;-73
2023/03/22 00:06:19;;;;;;;;;;;;;;;5.91;77.12;97107.33;108931;1250;103690;-73
2023/03/22 00:08:51;;;;;;;;;;;;;;;5.84;76.98;97104.47;108935;1251;101390;-74
2023/03/22 00:11:21;;;;;;;;;;;;;;;5.74;77.18;97103.48;108888;1251;99883;-73
2023/03/22 00:13:51;;;;;;;;;;;;;;;5.68;77.30;97101.84;108964;1251;95609;-73
2023/03/22 00:16:19;;;;;;;;;;;;;;;5.65;77.46;97101.69;108707;1251;95796;-73
2023/03/22 00:18:47;;;;;;;;;;;;;;;5.63;77.30;97097.22;108954;1251;103457;-73
2023/03/22 00:21:15;;;;;;;;;;;;;;;5.57;77.12;97092.08;108953;1250;101450;-73
2023/03/22 00:23:44;;;;;;;;;;;;;;;5.53;77.27;97091.13;108888;1251;99594;-72
2023/03/22 00:26:13;;;;;;;;;;;;;;;5.53;77.41;97093.30;108883;1251;95636;-72
2023/03/22 00:28:41;;;;;;;;;;;;;;;5.52;77.45;97092.14;108845;1251;95766;-73
2023/03/22 00:31:09;;;;;;;;;;;;;;;5.50;77.27;97089.02;108923;1251;103359;-73
2023/03/22 00:33:37;;;;;;;;;;;;;;;5.48;77.29;97090.02;108955;1251;101174;-73
2023/03/22 00:36:07;;;;;;;;;;;;;;;5.45;77.28;97088.16;108857;1251;100525;-72
2023/03/22 00:38:37;;;;;;;;;;;;;;;5.41;77.29;97084.15;108673;1251;95618;-73
2023/03/22 00:41:06;;;;;;;;;;;;;;;5.36;77.37;97081.27;108720;1252;95701;-73
2023/03/22 00:43:34;;;;;;;;;;;;;;;5.30;77.44;97078.77;108655;1252;103727;-72
2023/03/22 00:46:02;;;;;;;;;;;;;;;5.27;77.44;97078.55;108877;1251;101177;-73
2023/03/22 00:48:30;;;;;;;;;;;;;;;5.25;77.49;97075.31;108898;1251;99757;-74
2023/03/22 00:50:58;;;;;;;;;;;;;;;5.18;77.29;97072.96;108739;1255;95581;-73
2023/03/22 00:53:27;;;;;;;;;;;;;;;5.11;77.27;97071.16;108916;1251;95710;-74
2023/03/22 00:55:56;;;;;;;;;;;;;;;5.07;77.28;97070.27;108902;1251;103583;-73
2023/03/22 00:58:24;;;;;;;;;;;;;;;5.07;77.30;97070.55;108940;1251;101486;-73
2023/03/22 01:00:52;;;;;;;;;;;;;;;5.04;77.14;97073.69;108901;1251;100086;-75
2023/03/22 01:03:20;;;;;;;;;;;;;;;5.01;76.86;97074.70;108869;1251;95812;-72
2023/03/22 01:05:49;;;;;;;;;;;;;;;4.98;76.76;97075.92;108907;1251;95630;-72
2023/03/22 01:08:17;;;;;;;;;;;;;;;4.93;76.59;97080.77;108935;1251;102339;-73
2023/03/22 01:10:45;;;;;;;;;;;;;;;4.87;76.56;97081.30;108597;1251;100911;-73
2023/03/22 01:13:13;;;;;;;;;;;;;;;4.80;76.39;97087.05;108858;1251;100040;-72
2023/03/22 01:15:41;;;;;;;;;;;;;;;4.68;76.39;97081.46;108913;1251;95783;-73
2023/03/22 01:18:09;;;;;;;;;;;;;;;4.55;76.32;97074.61;108663;1252;95859;-73
2023/03/22 01:20:37;;;;;;;;;;;;;;;4.46;76.39;97073.27;108906;1251;103619;-74
2023/03/22 01:23:05;;;;;;;;;;;;;;;4.37;76.51;97071.80;108893;1251;101090;-72
2023/03/22 01:25:33;;;;;;;;;;;;;;;4.31;76.75;97072.02;108894;1251;99694;-72
2023/03/22 01:28:02;;;;;;;;;;;;;;;4.28;76.99;97072.10;108882;1251;95608;-73
2023/03/22 01:30:30;;;;;;;;;;;;;;;4.29;77.10;97073.63;108909;1251;95588;-74
2023/03/22 01:32:58;;;;;;;;;;;;;;;4.29;77.01;97071.67;108911;1251;103292;-73
2023/03/22 01:35:26;;;;;;;;;;;;;;;4.30;77.18;97067.15;108917;1250;101445;-72
2023/03/22 01:37:54;;;;;;;;;;;;;;;4.27;77.21;97063.20;108921;1251;99743;-75
2023/03/22 01:40:22;;;;;;;;;;;;;;;4.27;77.35;97064.02;108884;1251;95685;-74
2023/03/22 01:42:50;;;;;;;;;;;;;;;4.29;77.30;97058.91;108929;1251;96387;-74
2023/03/22 01:45:30;;;;;;;;;;;;;;;4.30;77.36;97053.02;108915;1250;103709;-74
2023/03/22 01:48:01;;;;;;;;;;;;;;;4.29;77.41;97054.20;108932;1250;101279;-73
2023/03/22 01:50:30;;;;;;;;;;;;;;;4.26;77.55;97051.05;108892;1251;100107;-73
2023/03/22 01:53:00;;;;;;;;;;;;;;;4.25;77.49;97052.69;108920;1251;95849;-72
2023/03/22 01:55:28;;;;;;;;;;;;;;;4.27;77.54;97050.23;108952;1251;96548;-74
2023/03/22 01:57:56;;;;;;;;;;;;;;;4.29;77.55;97049.09;108951;1251;103708;-73
2023/03/22 02:00:24;;;;;;;;;;;;;;;4.29;77.59;97043.14;108946;1251;101292;-73
2023/03/22 02:02:52;;;;;;;;;;;;;;;4.28;77.60;97045.39;108825;1251;100143;-72
2023/03/22 02:05:21;;;;;;;;;;;;;;;4.29;77.63;97049.13;108872;1251;95804;-73
2023/03/22 02:07:49;;;;;;;;;;;;;;;4.26;77.72;97047.10;108771;1251;95708;-74
2023/03/22 02:10:19;;;;;;;;;;;;;;;4.22;77.90;97048.49;108871;1250;103209;-72
2023/03/22 02:12:59;;;;;;;;;;;;;;;4.22;77.99;97046.69;108816;1250;109979;-73
2023/03/22 02:15:36;;;;;;;;;;;;;;;4.20;78.08;97040.16;108595;1251;98954;-74
2023/03/22 02:18:15;;;;;;;;;;;;;;;4.20;78.12;97035.58;108805;1251;95984;-73
2023/03/22 02:20:58;;;;;;;;;;;;;;;4.23;78.31;97039.29;108881;1251;96535;-74
2023/03/22 02:23:28;;;;;;;;;;;;;;;4.24;78.19;97037.66;108818;1251;104008;-74
2023/03/22 02:25:56;;;;;;;;;;;;;;;4.21;78.28;97038.41;108812;1251;101497;-73
2023/03/22 02:28:30;;;;;;;;;;;;;;;4.20;78.24;97034.78;108813;1251;100080;-74
2023/03/22 02:31:01;;;;;;;;;;;;;;;4.19;78.12;97033.34;108798;1254;95626;-74
2023/03/22 02:33:48;;;;;;;;;;;;;;;4.19;78.20;97034.92;108896;1251;95618;-74
2023/03/22 02:36:34;;;;;;;;;;;;;;;4.22;78.33;97032.49;108816;1250;103736;-73
2023/03/22 02:39:20;;;;;;;;;;;;;;;4.22;78.26;97031.59;108855;1251;101515;-73
2023/03/22 02:42:10;;;;;;;;;;;;;;;4.17;78.22;97027.82;108821;1251;99999;-72
2023/03/22 02:44:58;;;;;;;;;;;;;;;4.17;78.18;97031.50;108760;1251;95791;-73
2023/03/22 02:47:43;;;;;;;;;;;;;;;4.12;77.91;97025.14;108875;1251;95806;-72
2023/03/22 02:50:20;;;;;;;;;;;;;;;4.06;77.82;97021.41;108858;1253;103770;-73
2023/03/22 02:52:53;;;;;;;;;;;;;;;4.03;77.83;97020.42;108855;1251;101446;-72
2023/03/22 02:55:26;;;;;;;;;;;;;;;4.01;77.65;97021.27;108610;1251;100926;-73
2023/03/22 02:58:09;;;;;;;;;;;;;;;3.94;77.47;97017.27;108825;1251;95792;-73
2023/03/22 03:00:38;;;;;;;;;;;;;;;3.83;77.53;97015.45;108831;1251;95974;-75
2023/03/22 03:03:10;;;;;;;;;;;;;;;3.78;77.55;97014.48;108778;1252;103557;-72
2023/03/22 03:05:41;;;;;;;;;;;;;;;3.72;77.66;97009.63;108832;1251;101628;-74
2023/03/22 03:08:10;;;;;;;;;;;;;;;3.62;77.75;97010.77;108811;1251;99890;-73
2023/03/22 03:10:40;;;;;;;;;;;;;;;3.55;77.86;97006.54;108775;1251;95601;-72
2023/03/22 03:13:15;;;;;;;;;;;;;;;3.49;78.02;97005.95;108824;1251;96456;-72
2023/03/22 03:15:47;;;;;;;;;;;;;;;3.46;78.04;97009.55;108773;1250;103438;-72
2023/03/22 03:18:43;;;;;;;;;;;;;;;3.42;78.04;97008.42;108877;1251;101684;-72
2023/03/22 03:21:33;;;;;;;;;;;;;;;3.34;78.12;97008.64;108310;1257;99493;-72
2023/03/22 03:24:19;;;;;;;;;;;;;;;3.23;78.20;97010.73;108279;1256;95684;-72
2023/03/22 03:26:47;;;;;;;;;;;;;;;3.14;78.32;97009.55;108108;1257;95882;-74
2023/03/22 03:29:18;;;;;;;;;;;;;;;3.09;78.41;97013.78;108305;1257;103386;-72
2023/03/22 03:31:49;;;;;;;;;;;;;;;3.06;78.65;97013.75;108362;1256;101377;-74
2023/03/22 03:34:17;;;;;;;;;;;;;;;3.03;78.63;97013.58;108248;1256;99870;-72
2023/03/22 03:36:49;;;;;;;;;;;;;;;2.99;78.63;97016.86;108263;1256;95615;-73
2023/03/22 03:39:18;;;;;;;;;;;;;;;2.98;78.63;97015.23;108169;1256;95664;-74
2023/03/22 03:41:48;;;;;;;;;;;;;;;3.00;78.59;97013.52;108174;1257;103812;-72
2023/03/22 03:44:17;;;;;;;;;;;;;;;3.00;78.40;97012.83;108329;1256;101459;-74
2023/03/22 03:46:46;;;;;;;;;;;;;;;2.95;78.13;97014.28;108286;1257;100167;-73
2023/03/22 03:49:15;;;;;;;;;;;;;;;2.93;78.05;97017.71;108314;1256;95614;-71
2023/03/22 03:51:48;;;;;;;;;;;;;;;2.91;77.86;97017.75;108393;1256;95772;-72
2023/03/22 03:54:16;;;;;;;;;;;;;;;2.86;77.58;97018.22;108396;1256;103752;-72
2023/03/22 03:56:46;;;;;;;;;;;;;;;2.81;77.44;97020.89;108364;1256;100085;-71
2023/03/22 03:59:15;;;;;;;;;;;;;;;2.78;77.42;97022.31;108762;1251;99800;-73
2023/03/22 04:01:48;;;;;;;;;;;;;;;2.74;77.34;97023.13;108853;1251;95550;-72
2023/03/22 04:04:25;;;;;;;;;;;;;;;2.70;77.29;97024.10;108859;1251;95744;-71
2023/03/22 04:06:55;;;;;;;;;;;;;;;2.66;77.23;97027.17;108872;1250;103429;-72
2023/03/22 04:09:27;;;;;;;;;;;;;;;2.62;77.20;97026.23;108940;1251;101452;-72
2023/03/22 04:11:56;;;;;;;;;;;;;;;2.60;77.21;97028.63;108875;1251;99900;-72
2023/03/22 04:14:24;;;;;;;;;;;;;;;2.56;77.20;97031.13;108763;1253;95604;-72
2023/03/22 04:16:53;;;;;;;;;;;;;;;2.52;77.27;97032.45;108940;1251;95661;-71
2023/03/22 04:19:21;;;;;;;;;;;;;;;2.51;77.28;97029.13;108925;1250;103741;-72
2023/03/22 04:21:51;;;;;;;;;;;;;;;2.51;77.29;97029.33;108886;1250;101447;-73
2023/03/22 04:24:20;;;;;;;;;;;;;;;2.50;77.23;97031.29;108860;1251;100172;-72
2023/03/22 04:26:48;;;;;;;;;;;;;;;2.46;77.13;97030.68;108866;1251;95550;-72
2023/03/22 04:29:16;;;;;;;;;;;;;;;2.36;77.16;97033.87;108684;1251;95670;-71
2023/03/22 04:31:44;;;;;;;;;;;;;;;2.32;77.35;97035.94;108907;1251;103589;-73
2023/03/22 04:34:12;;;;;;;;;;;;;;;2.31;77.50;97042.30;108601;1252;101487;-73
2023/03/22 04:36:41;;;;;;;;;;;;;;;2.29;77.32;97044.67;108875;1251;99998;-72
2023/03/22 04:39:10;;;;;;;;;;;;;;;2.23;77.25;97040.55;108850;1251;95509;-73
2023/03/22 04:41:38;;;;;;;;;;;;;;;2.18;77.34;97040.73;108906;1251;95564;-72
2023/03/22 04:44:07;;;;;;;;;;;;;;;2.17;77.44;97038.66;108920;1251;103562;-73
2023/03/22 04:46:36;;;;;;;;;;;;;;;2.17;77.44;97040.63;108900;1251;101491;-72
2023/03/22 04:49:05;;;;;;;;;;;;;;;2.14;77.30;97040.10;108884;1251;98648;-73
2023/03/22 04:51:33;;;;;;;;;;;;;;;2.13;77.44;97040.77;108861;1251;95857;-72
2023/03/22 04:54:01;;;;;;;;;;;;;;;2.14;77.59;97046.16;108890;1251;95572;-72
2023/03/22 04:56:29;;;;;;;;;;;;;;;2.10;77.25;97047.75;108951;1251;103706;-71
2023/03/22 04:58:57;;;;;;;;;;;;;;;2.05;77.19;97049.08;108882;1250;101131;-72
2023/03/22 05:01:25;;;;;;;;;;;;;;;2.03;77.32;97053.35;108835;1251;100055;-71
2023/03/22 05:03:52;;;;;;;;;;;;;;;2.05;77.60;97056.54;108857;1251;95557;-72
2023/03/22 05:06:20;;;;;;;;;;;;;;;2.04;77.38;97056.74;108889;1251;95633;-74
2023/03/22 05:08:48;;;;;;;;;;;;;;;2.01;77.36;97059.14;108886;1251;103766;-73
2023/03/22 05:11:19;;;;;;;;;;;;;;;1.97;77.26;97060.63;108876;1251;101440;-72
2023/03/22 05:13:47;;;;;;;;;;;;;;;1.91;77.25;97057.73;108923;1251;99716;-73
2023/03/22 05:16:15;;;;;;;;;;;;;;;1.90;77.52;97054.81;108891;1251;95497;-74
2023/03/22 05:18:44;;;;;;;;;;;;;;;1.92;77.52;97051.16;108932;1251;95578;-72
2023/03/22 05:21:14;;;;;;;;;;;;;;;1.94;77.59;97055.90;108875;1251;103509;-72
2023/03/22 05:23:42;;;;;;;;;;;;;;;1.95;77.68;97059.33;108899;1251;100972;-72
2023/03/22 05:26:14;;;;;;;;;;;;;;;1.96;77.70;97057.52;108656;1251;99543;-73
2023/03/22 05:28:43;;;;;;;;;;;;;;;1.95;77.77;97056.39;108938;1251;95538;-72
2023/03/22 05:31:14;;;;;;;;;;;;;;;1.95;77.71;97058.79;108912;1251;95637;-74
2023/03/22 05:33:42;;;;;;;;;;;;;;;1.96;77.79;97060.86;108864;1251;103524;-74
2023/03/22 05:36:10;;;;;;;;;;;;;;;1.93;77.67;97066.35;108932;1251;101117;-73
2023/03/22 05:38:38;;;;;;;;;;;;;;;1.91;77.73;97066.53;108830;1251;100245;-73
2023/03/22 05:41:06;;;;;;;;;;;;;;;1.93;78.00;97070.62;108848;1251;95560;-72
2023/03/22 05:43:34;;;;;;;;;;;;;;;1.96;77.92;97072.79;108931;1251;95727;-72
2023/03/22 05:46:09;;;;;;;;;;;;;;;1.98;77.91;97073.64;108869;1251;102858;-73
2023/03/22 05:48:38;;;;;;;;;;;;;;;2.00;78.14;97074.85;108833;1251;101474;-72
2023/03/22 05:51:06;;;;;;;;;;;;;;;2.03;78.26;97074.98;108889;1251;100006;-72
2023/03/22 05:53:34;;;;;;;;;;;;;;;2.07;78.32;97075.43;108889;1251;95849;-71
2023/03/22 05:56:02;;;;;;;;;;;;;;;2.12;78.34;97079.14;108860;1251;95605;-74
2023/03/22 05:58:32;;;;;;;;;;;;;;;2.18;78.52;97077.93;108881;1251;103909;-72
2023/03/22 06:01:08;;;;;;;;;;;;;;;2.24;78.56;97078.77;108888;1251;101359;-73
2023/03/22 06:03:36;;;;;;;;;;;;;;;2.33;78.71;97075.63;108907;1251;100052;-74
2023/03/22 06:06:09;;;;;;;;;;;;;;;2.42;78.95;97075.09;108872;1255;95574;-72
2023/03/22 06:08:38;;;;;;;;;;;;;;;2.54;79.17;97074.37;108901;1251;95671;-74
2023/03/22 06:11:07;;;;;;;;;;;;;;;2.67;79.43;97073.77;108652;1251;102341;-72
2023/03/22 06:13:34;;;;;;;;;;;;;;;2.79;79.46;97076.30;108676;1251;102472;-73
2023/03/22 06:16:03;;;;;;;;;;;;;;;2.93;79.67;97073.40;108853;1251;99984;-73
2023/03/22 06:18:32;;;;;;;;;;;;;;;3.05;79.76;97072.03;108860;1251;95537;-73
2023/03/22 06:21:00;;;;;;;;;;;;;;;3.16;79.82;97076.91;108889;1251;95598;-72
2023/03/22 06:23:28;;;;;;;;;;;;;;;3.30;79.93;97080.43;108834;1256;103561;-72
2023/03/22 06:25:56;;;;;;;;;;;;;;;3.42;80.08;97078.42;108889;1251;101128;-71
2023/03/22 06:28:28;;;;;;;;;;;;;;;3.56;80.15;97079.13;108646;1251;99840;-74
2023/03/22 06:30:56;;;;;;;;;;;;;;;3.71;80.24;97080.67;108888;1251;95506;-72
2023/03/22 06:33:24;;;;;;;;;;;;;;;3.82;80.20;97070.55;108869;1253;95679;-73
2023/03/22 06:35:52;;;;;;;;;;;;;;;3.96;80.25;97074.66;108904;1251;103369;-73
2023/03/22 06:38:20;;;;;;;;;;;;;;;4.10;80.31;97075.15;108911;1251;101339;-74
2023/03/22 06:40:48;;;;;;;;;;;;;;;4.26;80.54;97073.13;108853;1251;99084;-73
2023/03/22 06:43:16;;;;;;;;;;;;;;;4.40;80.58;97075.35;108818;1256;95566;-73
2023/03/22 06:45:45;;;;;;;;;;;;;;;4.57;80.50;97073.55;108832;1251;95580;-72
2023/03/22 06:48:13;;;;;;;;;;;;;;;4.73;80.61;97074.26;108650;1251;102342;-75
2023/03/22 06:50:41;;;;;;;;;;;;;;;4.90;80.58;97073.07;108903;1251;101437;-72
2023/03/22 06:53:09;;;;;;;;;;;;;;;5.09;80.74;97066.08;108863;1251;99847;-73
2023/03/22 06:55:38;;;;;;;;;;;;;;;5.28;80.92;97062.84;108869;1251;96092;-72
2023/03/22 06:58:06;;;;;;;;;;;;;;;5.47;80.78;97057.27;108908;1251;96958;-72
2023/03/22 07:00:35;;;;;;;;;;;;;;;5.64;80.62;97054.09;108874;1251;112455;-72
2023/03/22 07:03:03;;;;;;;;;;;;;;;5.78;80.49;97055.86;108948;1251;101451;-73
2023/03/22 07:05:31;;;;;;;;;;;;;;;5.94;80.49;97054.45;108855;1251;109411;-73
2023/03/22 07:07:59;;;;;;;;;;;;;;;6.06;80.27;97052.63;108875;1251;97073;-73
2023/03/22 07:10:26;;;;;;;;;;;;;;;6.17;80.02;97051.04;108960;1251;95631;-73
2023/03/22 07:12:54;;;;;;;;;;;;;;;6.28;80.03;97049.15;108934;1253;103135;-74
2023/03/22 07:15:23;;;;;;;;;;;;;;;6.37;79.87;97052.04;108919;1251;101526;-73
2023/03/22 07:17:51;;;;;;;;;;;;;;;6.47;79.68;97048.63;108853;1251;99934;-72
2023/03/22 07:20:20;;;;;;;;;;;;;;;6.56;79.52;97053.92;108826;1251;95586;-74
2023/03/22 07:22:49;;;;;;;;;;;;;;;6.64;79.43;97052.08;108660;1251;95670;-72
2023/03/22 07:25:17;;;;;;;;;;;;;;;6.72;79.28;97046.00;108852;1251;103618;-73
2023/03/22 07:27:45;;;;;;;;;;;;;;;6.82;79.58;97043.70;108861;1251;101300;-72
2023/03/22 07:30:13;;;;;;;;;;;;;;;6.95;79.67;97040.36;108839;1251;99709;-72
2023/03/22 07:32:41;;;;;;;;;;;;;;;7.07;79.51;97040.93;108869;1251;95653;-72
2023/03/22 07:35:09;;;;;;;;;;;;;;;7.19;79.04;97040.75;108872;1251;95771;-74
2023/03/22 07:37:37;;;;;;;;;;;;;;;7.31;78.88;97042.27;108915;1251;103183;-74
2023/03/22 07:40:06;;;;;;;;;;;;;;;7.42;78.54;97043.96;108906;1250;101172;-73
2023/03/22 07:42:34;;;;;;;;;;;;;;;7.56;78.55;97043.97;108619;1251;98930;-73
2023/03/22 07:45:02;;;;;;;;;;;;;;;7.71;78.52;97037.69;108854;1251;95640;-74
2023/03/22 07:47:30;;;;;;;;;;;;;;;7.85;78.15;97029.41;108924;1251;95710;-72
2023/03/22 07:49:58;;;;;;;;;;;;;;;7.99;77.64;97025.52;108847;1251;103461;-73
2023/03/22 07:52:26;;;;;;;;;;;;;;;8.18;77.44;97027.65;108852;1251;101677;-73
2023/03/22 07:54:54;;;;;;;;;;;;;;;8.37;77.11;97028.48;108895;1251;108622;-73
2023/03/22 07:57:22;;;;;;;;;;;;;;;8.52;76.77;97032.09;108897;1251;95645;-73
2023/03/22 07:59:50;;;;;;;;;;;;;;;8.62;76.23;97033.12;108777;1251;194298;-73
2023/03/22 08:02:18;;;;;;;;;;;;;;;8.74;76.06;97038.73;108906;1251;103428;-73
2023/03/22 08:04:47;;;;;;;;;;;;;;;8.85;75.91;97036.58;108834;1252;101297;-75
2023/03/22 08:07:17;;;;;;;;;;;;;;;8.99;75.84;97028.80;108838;1251;99928;-74
2023/03/22 08:09:45;;;;;;;;;;;;;;;9.19;75.73;97026.97;108834;1251;96088;-73
2023/03/22 08:12:13;;;;;;;;;;;;;;;9.47;75.48;97024.13;108891;1251;95748;-72
2023/03/22 08:14:41;;;;;;;;;;;;;;;9.72;75.03;97022.73;108899;1251;103325;-73
2023/03/22 08:17:09;;;;;;;;;;;;;;;10.02;74.98;97013.86;108931;1251;101528;-73
2023/03/22 08:19:37;;;;;;;;;;;;;;;10.41;74.34;97006.91;108856;1251;99566;-73
2023/03/22 08:22:05;;;;;;;;;;;;;;;10.78;74.27;97006.64;108849;1251;95939;-74
2023/03/22 08:24:33;;;;;;;;;;;;;;;11.07;73.58;97011.45;108808;1252;96663;-73
2023/03/22 08:27:01;;;;;;;;;;;;;;;11.28;72.64;97008.28;108908;1251;103659;-74
2023/03/22 08:29:29;;;;;;;;;;;;;;;11.43;72.07;97010.98;108920;1251;101300;-72
2023/03/22 08:32:01;;;;;;;;;;;;;;;11.53;71.38;97010.40;108781;1251;99863;-72
2023/03/22 08:34:32;;;;;;;;;;;;;;;11.62;70.81;97007.16;108702;1253;95557;-74
2023/03/22 08:37:00;;;;;;;;;;;;;;;11.68;69.95;97005.02;108821;1251;95762;-73
2023/03/22 08:39:28;;;;;;;;;;;;;;;11.77;69.80;97002.79;108794;1251;103667;-73
2023/03/22 08:41:56;;;;;;;;;;;;;;;11.91;69.59;97001.48;108841;1250;101337;-73
2023/03/22 08:44:24;;;;;;;;;;;;;;;12.07;69.62;97002.83;108794;1251;100185;-73
2023/03/22 08:46:53;;;;;;;;;;;;;;;12.23;69.41;96999.58;108738;1251;95539;-72
2023/03/22 08:49:21;;;;;;;;;;;;;;;12.48;68.98;96995.29;108857;1251;95832;-72
2023/03/22 08:51:49;;;;;;;;;;;;;;;12.61;68.36;96993.98;108463;1255;103783;-73
2023/03/22 08:54:17;;;;;;;;;;;;;;;12.71;67.41;96993.28;108808;1253;100750;-73
2023/03/22 08:56:45;;;;;;;;;;;;;;;12.78;66.79;96995.33;108691;1254;97778;-73
2023/03/22 08:59:13;;;;;;;;;;;;;;;12.83;66.56;96995.91;108746;1254;95594;-73
2023/03/22 09:01:41;;;;;;;;;;;;;;;12.91;65.79;96994.47;108600;1254;96662;-73
2023/03/22 09:04:09;;;;;;;;;;;;;;;13.01;65.58;96992.20;108613;1254;103559;-74
2023/03/22 09:06:41;;;;;;;;;;;;;;;13.08;64.87;96986.89;108827;1254;101414;-73
2023/03/22 09:09:09;;;;;;;;;;;;;;;13.17;64.88;96984.67;108725;1253;99888;-73
2023/03/22 09:11:40;;;;;;;;;;;;;;;13.25;64.59;96982.31;108732;1253;95521;-73
2023/03/22 09:14:08;;;;;;;;;;;;;;;13.31;64.18;96980.01;108781;1253;95762;-73
2023/03/22 09:16:36;;;;;;;;;;;;;;;13.37;63.85;96977.04;108783;1254;103030;-73
2023/03/22 09:19:04;;;;;;;;;;;;;;;13.43;63.65;96973.47;108750;1255;101262;-73
2023/03/22 09:21:32;;;;;;;;;;;;;;;13.51;63.41;96971.85;108778;1254;99861;-74
2023/03/22 09:24:00;;;;;;;;;;;;;;;13.57;62.91;96972.52;108712;1254;95677;-73
2023/03/22 09:26:28;;;;;;;;;;;;;;;13.63;62.54;96970.19;108754;1254;95624;-74
2023/03/22 09:28:56;;;;;;;;;;;;;;;13.88;62.62;96963.52;108783;1254;103627;-74
2023/03/22 09:31:24;;;;;;;;;;;;;;;14.28;61.88;96957.72;108441;1254;101352;-73
2023/03/22 09:33:52;;;;;;;;;;;;;;;14.51;61.16;96953.41;108725;1254;108226;-74
2023/03/22 09:36:20;;;;;;;;;;;;;;;14.58;60.66;96950.91;108747;1253;95577;-74
2023/03/22 09:38:48;;;;;;;;;;;;;;;14.66;60.69;96945.16;108780;1254;95827;-75
2023/03/22 09:41:27;;;;;;;;;;;;;;;14.80;60.85;96938.15;108805;1253;103145;-75
2023/03/22 09:43:58;;;;;;;;;;;;;;;15.08;60.79;96935.45;108817;1254;101411;-74
2023/03/22 09:46:34;;;;;;;;;;;;;;;15.45;60.16;96928.31;108777;1254;99905;-74
2023/03/22 09:49:04;;;;;;;;;;;;;;;15.66;58.98;96923.64;108789;1253;95535;-74
2023/03/22 09:51:36;;;;;;;;;;;;;;;15.86;59.03;96919.98;108802;1251;95664;-74
2023/03/22 09:54:04;;;;;;;;;;;;;;;16.00;58.50;96923.99;108813;1251;103535;-74
2023/03/22 09:56:32;;;;;;;;;;;;;;;16.05;57.69;96921.33;108850;1251;101288;-74
2023/03/22 09:59:06;;;;;;;;;;;;;;;16.00;57.35;96915.39;108803;1251;99923;-75
2023/03/22 10:01:57;;;;;;;;;;;;;;;15.91;57.44;96917.59;108799;1251;95573;-74
2023/03/22 10:04:54;;;;;;;;;;;;;;;15.82;56.95;96919.46;108252;1259;95956;-75
2023/03/22 10:07:26;;;;;;;;;;;;;;;15.75;56.56;96916.77;108054;1260;103529;-74
2023/03/22 10:10:16;;;;;;;;;;;;;;;15.73;56.75;96912.77;108243;1260;101310;-75
2023/03/22 10:12:58;;;;;;;;;;;;;;;15.70;56.98;96912.14;108231;1259;99959;-74
2023/03/22 10:15:26;;;;;;;;;;;;;;;15.79;56.89;96907.23;108196;1259;95872;-74
2023/03/22 10:17:56;;;;;;;;;;;;;;;16.00;57.20;96904.27;108229;1259;96565;-74
2023/03/22 10:20:37;;;;;;;;;;;;;;;16.50;57.47;96904.50;108220;1260;104583;-74
2023/03/22 10:23:06;;;;;;;;;;;;;;;17.05;56.43;96902.26;108227;1258;101714;-74
2023/03/22 10:25:36;;;;;;;;;;;;;;;17.42;55.11;96902.98;108224;1259;100212;-75
2023/03/22 10:28:36;;;;;;;;;;;;;;;17.79;54.50;96897.34;108183;1259;96018;-75
2023/03/22 10:31:05;;;;;;;;;;;;;;;18.09;53.80;96894.07;107815;1267;95669;-75
2023/03/22 10:33:49;;;;;;;;;;;;;;;17.86;52.70;96889.11;107796;1267;103768;-74
2023/03/22 10:36:18;;;;;;;;;;;;;;;17.53;52.24;96889.11;107820;1267;101411;-73
2023/03/22 10:38:48;;;;;;;;;;;;;;;17.22;52.46;96892.92;107774;1266;99663;-75
2023/03/22 10:41:17;;;;;;;;;;;;;;;17.07;52.79;96899.70;107899;1260;95845;-75
2023/03/22 10:43:48;;;;;;;;;;;;;;;17.01;52.53;96900.94;108282;1259;96111;-75
2023/03/22 10:46:19;;;;;;;;;;;;;;;17.00;52.57;96903.29;108285;1260;103693;-75
2023/03/22 10:48:49;;;;;;;;;;;;;;;16.97;52.53;96904.69;108306;1260;101482;-75
2023/03/22 10:51:27;;;;;;;;;;;;;;;16.94;52.18;96899.26;108234;1259;99603;-74
2023/03/22 10:53:57;;;;;;;;;;;;;;;16.94;52.23;96896.97;108264;1258;95931;-74
2023/03/22 10:56:25;;;;;;;;;;;;;;;17.00;52.07;96891.52;108314;1259;96208;-75
2023/03/22 10:58:54;;;;;;;;;;;;;;;17.02;52.31;96894.35;108200;1259;112259;-74
2023/03/22 11:01:30;;;;;;;;;;;;;;;17.03;52.50;96893.85;108302;1258;100337;-73
2023/03/22 11:04:07;;;;;;;;;;;;;;;17.03;51.87;96890.15;108244;1258;99965;-75
2023/03/22 11:06:39;;;;;;;;;;;;;;;16.94;51.96;96883.12;108257;1251;95647;-73
2023/03/22 11:09:10;;;;;;;;;;;;;;;16.82;52.14;96884.03;108826;1251;95600;-75
2023/03/22 11:11:47;;;;;;;;;;;;;;;16.82;51.91;96882.56;108833;1251;103476;-75
2023/03/22 11:14:28;;;;;;;;;;;;;;;16.83;51.70;96879.36;108868;1251;101051;-74
2023/03/22 11:17:08;;;;;;;;;;;;;;;16.91;51.82;96877.17;108784;1251;99924;-74
2023/03/22 11:19:38;;;;;;;;;;;;;;;17.05;51.56;96874.83;108855;1251;95672;-74
2023/03/22 11:22:07;;;;;;;;;;;;;;;17.13;51.66;96874.23;108837;1251;95587;-74
2023/03/22 11:24:35;;;;;;;;;;;;;;;17.10;51.32;96869.73;108866;1251;103541;-75
2023/03/22 11:27:05;;;;;;;;;;;;;;;17.06;51.70;96869.65;108636;1253;100261;-74
2023/03/22 11:29:44;;;;;;;;;;;;;;;17.14;51.95;96872.14;108832;1251;99887;-74
2023/03/22 11:32:28;;;;;;;;;;;;;;;17.22;51.18;96873.77;108821;1251;95608;-74
2023/03/22 11:35:12;;;;;;;;;;;;;;;17.23;51.00;96872.03;108692;1251;95665;-75
2023/03/22 11:37:42;;;;;;;;;;;;;;;17.20;50.72;96870.64;108657;1250;102579;-75
2023/03/22 11:40:14;;;;;;;;;;;;;;;17.21;50.59;96866.84;108781;1251;101365;-75
2023/03/22 11:42:42;;;;;;;;;;;;;;;17.22;50.61;96865.81;108845;1251;99984;-74
2023/03/22 11:45:15;;;;;;;;;;;;;;;17.15;50.14;96862.08;108647;1251;96031;-74
2023/03/22 11:47:43;;;;;;;;;;;;;;;17.11;50.36;96859.77;108851;1251;95717;-75
2023/03/22 11:50:29;;;;;;;;;;;;;;;17.09;50.35;96859.54;108817;1251;103483;-74
2023/03/22 11:52:57;;;;;;;;;;;;;;;17.09;50.23;96859.04;108708;1251;101537;-74
2023/03/22 11:55:25;;;;;;;;;;;;;;;17.09;50.17;96855.50;108877;1251;99379;-74
2023/03/22 11:57:55;;;;;;;;;;;;;;;17.12;50.20;96856.66;108790;1251;95524;-75
2023/03/22 12:00:25;;;;;;;;;;;;;;;17.15;50.06;96854.21;108829;1251;96525;-74
2023/03/22 12:03:15;;;;;;;;;;;;;;;17.13;49.90;96851.98;108877;1250;103757;-74
2023/03/22 12:05:44;;;;;;;;;;;;;;;17.05;49.69;96852.47;108832;1251;101304;-74
2023/03/22 12:08:21;;;;;;;;;;;;;;;16.94;49.54;96854.23;108805;1251;99940;-75
2023/03/22 12:10:52;;;;;;;;;;;;;;;16.83;49.54;96853.95;108793;1251;95615;-74
2023/03/22 12:13:27;;;;;;;;;;;;;;;16.75;49.57;96852.44;108844;1251;96105;-75
2023/03/22 12:15:58;;;;;;;;;;;;;;;16.70;49.56;96855.23;108798;1251;103550;-74
2023/03/22 12:18:32;;;;;;;;;;;;;;;16.64;49.67;96853.45;108867;1251;101574;-74
2023/03/22 12:21:01;;;;;;;;;;;;;;;16.56;49.38;96850.33;108831;1251;98732;-75
2023/03/22 12:23:30;;;;;;;;;;;;;;;16.54;49.57;96849.88;108827;1251;95504;-74
2023/03/22 12:26:01;;;;;;;;;;;;;;;16.57;49.72;96849.45;108853;1251;95689;-74
2023/03/22 12:28:40;;;;;;;;;;;;;;;16.58;49.72;96846.68;108629;1251;103297;-75
2023/03/22 12:31:21;;;;;;;;;;;;;;;16.55;49.53;96838.27;108856;1250;101463;-74
2023/03/22 12:33:52;;;;;;;;;;;;;;;16.50;49.60;96838.19;108731;1251;99848;-73
2023/03/22 12:36:25;;;;;;;;;;;;;;;16.44;49.74;96839.33;108795;1251;95605;-75
2023/03/22 12:38:57;;;;;;;;;;;;;;;16.44;49.59;96838.58;108622;1251;95977;-74
2023/03/22 12:41:35;;;;;;;;;;;;;;;16.45;49.67;96839.23;108855;1251;103543;-74
2023/03/22 12:44:08;;;;;;;;;;;;;;;16.43;49.65;96841.77;108847;1251;101394;-74
2023/03/22 12:46:45;;;;;;;;;;;;;;;16.41;49.36;96839.88;108851;1251;99652;-74
2023/03/22 12:49:22;;;;;;;;;;;;;;;16.35;49.42;96835.47;108854;1251;95612;-74
2023/03/22 12:51:52;;;;;;;;;;;;;;;16.32;49.58;96837.95;108845;1251;95741;-74
2023/03/22 12:54:23;;;;;;;;;;;;;;;16.32;49.77;96841.16;108628;1251;103470;-74
2023/03/22 12:56:51;;;;;;;;;;;;;;;16.28;49.56;96842.50;108881;1251;101315;-76